Time;durP1;ratioP1;P1;durP2;ratioP2;P2;SDS_P1;SDS_P2;PMS_P1;PMS_P2;Temp;Humidity;BMP_temperature;BMP_pressure;BME280_temperature;BME280_humidity;BME280_pressure;Samples;Min_cycle;Max_cycle;Signal;HPM_P1;HPM_P2
2022/11/04 00:01:03;;;;;;;7.57;6.50;;;22.50;67.30;;;;;;4993420;28;20466;-75
2022/11/04 00:03:32;;;;;;;7.07;5.97;;;22.60;67.30;;;;;;4992321;28;20480;-75
2022/11/04 00:06:03;;;;;;;5.73;5.33;;;22.60;67.30;;;;;;4997615;28;20453;-74
2022/11/04 00:08:31;;;;;;;6.97;6.43;;;22.60;67.30;;;;;;4992970;28;20453;-74
2022/11/04 00:13:47;;;;;;;7.50;6.80;;;22.60;67.30;;;;;;5002642;28;20458;-74
2022/11/04 00:19:01;;;;;;;6.10;5.60;;;22.60;67.30;;;;;;5012004;28;20460;-74
2022/11/04 00:29:56;;;;;;;5.43;4.93;;;22.60;67.30;;;;;;4950695;28;20468;-75
2022/11/04 00:35:12;;;;;;;6.20;5.60;;;22.60;67.20;;;;;;4996330;28;21178;-74
2022/11/04 00:37:43;;;;;;;5.73;5.23;;;22.60;67.20;;;;;;4994529;28;20458;-74
2022/11/04 00:40:13;;;;;;;5.90;4.90;;;22.50;67.20;;;;;;5010822;28;20477;-74
2022/11/04 00:42:43;;;;;;;5.87;5.27;;;22.60;67.20;;;;;;4998305;28;20480;-74
2022/11/04 00:45:11;;;;;;;5.50;5.00;;;22.60;67.10;;;;;;5009643;28;20465;-74
2022/11/04 00:47:41;;;;;;;5.83;5.37;;;22.60;67.20;;;;;;5001056;28;20925;-74
2022/11/04 00:50:10;;;;;;;5.10;4.70;;;22.50;67.20;;;;;;4993626;28;20457;-74
2022/11/04 00:52:38;;;;;;;5.43;4.93;;;22.60;67.20;;;;;;4999707;28;20488;-74
2022/11/04 00:55:08;;;;;;;5.07;4.67;;;22.60;67.20;;;;;;5005592;28;20464;-74
2022/11/04 00:57:36;;;;;;;6.23;4.60;;;22.60;67.20;;;;;;5000107;28;20456;-74
2022/11/04 01:00:06;;;;;;;5.13;4.70;;;22.60;67.30;;;;;;5009674;28;21163;-74
2022/11/04 01:02:34;;;;;;;5.60;5.10;;;22.50;67.20;;;;;;4992817;28;20449;-75
2022/11/04 01:05:02;;;;;;;5.30;4.80;;;22.60;67.20;;;;;;4993329;28;20568;-74
2022/11/04 01:07:31;;;;;;;4.77;4.37;;;22.60;67.20;;;;;;4993187;28;20432;-74
2022/11/04 01:09:59;;;;;;;4.57;4.27;;;22.60;67.20;;;;;;4993737;28;20431;-74
2022/11/04 01:12:28;;;;;;;4.30;4.00;;;22.50;67.10;;;;;;4993844;28;20445;-74
2022/11/04 01:14:56;;;;;;;4.93;4.30;;;22.50;67.10;;;;;;5002523;28;20555;-74
2022/11/04 01:17:25;;;;;;;6.47;4.60;;;22.50;67.10;;;;;;5007029;28;20483;-74
2022/11/04 01:19:53;;;;;;;4.97;4.57;;;22.50;67.10;;;;;;5012962;28;20469;-74
2022/11/04 01:22:21;;;;;;;4.30;3.90;;;22.50;67.00;;;;;;5012856;28;20442;-74
2022/11/04 01:24:49;;;;;;;4.70;4.30;;;22.50;67.00;;;;;;5000598;28;20477;-74
2022/11/04 01:27:17;;;;;;;5.10;4.63;;;22.50;66.90;;;;;;4990743;28;20463;-74
2022/11/04 01:29:46;;;;;;;4.00;3.70;;;22.50;66.80;;;;;;4995100;28;20441;-75
2022/11/04 01:32:14;;;;;;;4.60;4.20;;;22.50;66.70;;;;;;5010243;28;20417;-74
2022/11/04 01:34:42;;;;;;;5.37;3.23;;;22.50;66.80;;;;;;5008404;28;20455;-74
2022/11/04 01:37:11;;;;;;;3.90;3.60;;;22.50;66.80;;;;;;5012694;28;20437;-74
2022/11/04 01:39:39;;;;;;;4.00;3.63;;;22.50;66.60;;;;;;4994625;28;20970;-74
2022/11/04 01:42:10;;;;;;;4.27;3.87;;;22.50;66.80;;;;;;5006547;28;20461;-75
2022/11/04 01:44:54;;;;;;;4.03;3.50;;;22.50;66.60;;;;;;5009786;28;20474;-74
2022/11/04 01:47:27;;;;;;;4.10;3.80;;;22.50;66.50;;;;;;5010901;28;20430;-74
2022/11/04 01:49:59;;;;;;;3.90;3.60;;;22.50;66.50;;;;;;5009171;28;20446;-75
2022/11/04 01:52:33;;;;;;;3.77;3.47;;;22.50;66.40;;;;;;4994691;28;20486;-74
2022/11/04 01:55:06;;;;;;;6.10;3.30;;;22.50;66.40;;;;;;4992481;28;20463;-74
2022/11/04 01:57:40;;;;;;;3.57;3.27;;;22.50;66.70;;;;;;4993130;28;20465;-74
2022/11/04 02:00:12;;;;;;;3.70;3.33;;;22.50;66.80;;;;;;4993038;28;20443;-74
2022/11/04 02:02:49;;;;;;;3.00;2.80;;;22.50;66.60;;;;;;5002187;28;20462;-74
2022/11/04 02:05:18;;;;;;;2.63;2.40;;;22.50;66.70;;;;;;5016213;28;20459;-73
2022/11/04 02:07:50;;;;;;;3.90;3.60;;;22.50;66.70;;;;;;5016039;28;20437;-74
2022/11/04 02:10:22;;;;;;;3.43;3.13;;;22.50;66.70;;;;;;5008349;28;20468;-74
2022/11/04 02:12:49;;;;;;;3.03;2.73;;;22.50;66.80;;;;;;5007917;28;20458;-74
2022/11/04 02:15:30;;;;;;;3.23;2.93;;;22.50;66.80;;;;;;5019572;28;20458;-74
2022/11/04 02:18:18;;;;;;;3.07;2.80;;;22.50;66.80;;;;;;5015866;28;20451;-74
2022/11/04 02:21:06;;;;;;;3.07;2.87;;;22.50;66.80;;;;;;4999480;28;20456;-74
2022/11/04 02:24:05;;;;;;;2.93;2.60;;;22.50;66.70;;;;;;5026301;28;20471;-74
2022/11/04 02:27:06;;;;;;;4.23;3.50;;;22.50;66.80;;;;;;5020245;28;20453;-74
2022/11/04 02:30:07;;;;;;;3.20;2.77;;;22.50;66.80;;;;;;4998724;28;20459;-74
2022/11/04 02:32:57;;;;;;;3.40;3.10;;;22.50;66.80;;;;;;5012660;28;20462;-74
2022/11/04 02:35:34;;;;;;;2.80;2.60;;;22.50;66.70;;;;;;5015883;28;20453;-74
2022/11/04 02:38:10;;;;;;;2.97;2.77;;;22.40;66.80;;;;;;5020793;28;20458;-74
2022/11/04 02:40:45;;;;;;;3.20;2.90;;;22.50;66.80;;;;;;5024142;28;21017;-75
2022/11/04 02:43:21;;;;;;;3.07;2.83;;;22.50;66.70;;;;;;5017454;28;20485;-75
2022/11/04 02:45:56;;;;;;;3.50;3.20;;;22.40;66.80;;;;;;5026944;28;20931;-75
2022/11/04 02:48:32;;;;;;;2.67;2.47;;;22.40;66.80;;;;;;5033431;28;20440;-74
2022/11/04 02:51:05;;;;;;;2.90;2.10;;;22.40;66.70;;;;;;5035827;28;20429;-74
2022/11/04 02:53:38;;;;;;;3.40;2.73;;;22.40;66.70;;;;;;5015854;28;20484;-75
2022/11/04 02:56:08;;;;;;;2.60;2.40;;;22.40;66.70;;;;;;5033059;28;20467;-74
2022/11/04 02:58:41;;;;;;;3.03;2.73;;;22.40;66.60;;;;;;5016989;28;20465;-74
2022/11/04 03:01:15;;;;;;;2.03;1.93;;;22.40;66.70;;;;;;5009241;28;20453;-74
2022/11/04 03:03:48;;;;;;;2.80;2.60;;;22.40;66.70;;;;;;5010071;28;20473;-74
2022/11/04 03:06:21;;;;;;;2.17;2.00;;;22.40;66.70;;;;;;5035382;28;20442;-75
2022/11/04 03:08:52;;;;;;;2.73;2.53;;;22.40;66.60;;;;;;5035311;28;20427;-74
2022/11/04 03:11:23;;;;;;;3.03;2.57;;;22.40;66.70;;;;;;5001838;28;20672;-74
2022/11/04 03:13:57;;;;;;;2.37;2.27;;;22.40;66.70;;;;;;5004523;28;20467;-73
2022/11/04 03:16:33;;;;;;;2.47;1.90;;;22.40;66.70;;;;;;5024299;28;20449;-74
2022/11/04 03:19:07;;;;;;;2.17;1.97;;;22.40;66.70;;;;;;5000254;28;20467;-74
2022/11/04 03:21:41;;;;;;;2.57;2.37;;;22.40;66.70;;;;;;5017413;28;20456;-73
2022/11/04 03:24:09;;;;;;;2.40;2.20;;;22.40;66.70;;;;;;5021498;28;20487;-75
2022/11/04 03:26:43;;;;;;;2.17;1.80;;;22.40;66.80;;;;;;5011644;28;20464;-74
2022/11/04 03:29:25;;;;;;;2.20;2.00;;;22.40;66.80;;;;;;5004879;28;20455;-74
2022/11/04 03:32:03;;;;;;;2.20;2.10;;;22.40;66.80;;;;;;4995947;28;20461;-74
2022/11/04 03:34:32;;;;;;;1.90;1.80;;;22.40;66.80;;;;;;4994614;28;20430;-74
2022/11/04 03:37:00;;;;;;;2.70;2.10;;;22.40;66.80;;;;;;5009621;28;20460;-74
2022/11/04 03:39:28;;;;;;;1.53;1.43;;;22.40;66.80;;;;;;5010654;28;20964;-75
2022/11/04 03:42:00;;;;;;;2.20;2.00;;;22.40;66.80;;;;;;5021895;28;20449;-75
2022/11/04 03:44:30;;;;;;;1.90;1.77;;;22.40;66.80;;;;;;5022870;28;20484;-75
2022/11/04 03:47:00;;;;;;;2.23;2.13;;;22.40;66.80;;;;;;5002617;28;20458;-75
2022/11/04 03:49:28;;;;;;;1.80;1.70;;;22.40;66.80;;;;;;4993510;28;20960;-74
2022/11/04 03:51:58;;;;;;;1.83;1.73;;;22.40;66.70;;;;;;4995026;28;20439;-75
2022/11/04 03:54:26;;;;;;;1.83;1.73;;;22.40;66.70;;;;;;4977446;28;20457;-75
2022/11/04 03:57:15;;;;;;;2.87;2.33;;;22.40;66.70;;;;;;4994973;28;20485;-75
2022/11/04 04:00:10;;;;;;;1.73;1.60;;;22.40;66.80;;;;;;4998910;28;20472;-74
2022/11/04 04:02:52;;;;;;;1.80;1.70;;;22.40;66.70;;;;;;5026965;28;20464;-75
2022/11/04 04:05:24;;;;;;;1.80;1.70;;;22.40;66.70;;;;;;5009328;28;20500;-74
2022/11/04 04:07:59;;;;;;;4.57;2.00;;;22.40;66.70;;;;;;4994469;28;20800;-74
2022/11/04 04:10:41;;;;;;;1.70;1.60;;;22.40;66.60;;;;;;5002229;28;20455;-75
2022/11/04 04:13:21;;;;;;;2.50;2.30;;;22.40;66.70;;;;;;5012351;28;20445;-75
2022/11/04 04:15:54;;;;;;;1.70;1.60;;;22.40;66.60;;;;;;5008732;28;20936;-75
2022/11/04 04:18:33;;;;;;;1.90;1.73;;;22.40;66.60;;;;;;5010684;28;20447;-74
2022/11/04 04:21:06;;;;;;;1.57;1.43;;;22.40;66.70;;;;;;4993558;28;20463;-76
2022/11/04 04:29:11;;;;;;;1.33;1.23;;;22.40;66.70;;;;;;5012406;28;20426;-74
2022/11/04 04:31:49;;;;;;;1.70;1.60;;;22.40;66.80;;;;;;5019351;28;20954;-74
2022/11/04 04:34:23;;;;;;;1.70;1.60;;;22.40;66.80;;;;;;5032700;28;21056;-74
2022/11/04 04:36:56;;;;;;;1.30;1.20;;;22.40;66.80;;;;;;5033908;28;20440;-73
2022/11/04 04:45:03;;;;;;;1.47;1.37;;;22.40;66.80;;;;;;5010580;28;20480;-75
2022/11/04 04:47:36;;;;;;;1.80;1.33;;;22.40;66.90;;;;;;5017003;28;20956;-74
2022/11/04 04:50:07;;;;;;;1.63;1.00;;;22.40;66.90;;;;;;5005185;28;20558;-74
2022/11/04 04:52:39;;;;;;;1.57;1.23;;;22.40;66.90;;;;;;5012914;28;20583;-74
2022/11/04 04:55:08;;;;;;;1.33;1.13;;;22.40;66.80;;;;;;5012297;28;20461;-74
2022/11/04 04:57:37;;;;;;;1.40;1.30;;;22.40;66.80;;;;;;4996312;28;20659;-74
2022/11/04 05:00:07;;;;;;;1.30;1.20;;;22.40;66.80;;;;;;5003208;28;20469;-74
2022/11/04 05:02:35;;;;;;;1.30;1.20;;;22.40;66.90;;;;;;5005710;28;20970;-74
2022/11/04 05:05:06;;;;;;;1.60;1.50;;;22.40;66.80;;;;;;5008022;28;20473;-74
2022/11/04 05:07:35;;;;;;;1.37;1.27;;;22.40;66.80;;;;;;4993639;28;20529;-75
2022/11/04 05:10:03;;;;;;;1.60;1.50;;;22.40;66.90;;;;;;4992556;28;20472;-74
2022/11/04 05:15:13;;;;;;;1.30;1.20;;;22.40;66.80;;;;;;5002383;28;20477;-75
2022/11/04 05:17:42;;;;;;;1.23;1.23;;;22.40;66.70;;;;;;5003292;28;20445;-75
2022/11/04 05:20:12;;;;;;;1.17;1.07;;;22.30;66.80;;;;;;5010506;28;20494;-75
2022/11/04 05:22:40;;;;;;;1.43;1.33;;;22.30;66.80;;;;;;5022452;28;20503;-75
2022/11/04 05:25:09;;;;;;;1.23;1.07;;;22.40;66.80;;;;;;5005226;28;20496;-76
2022/11/04 05:27:37;;;;;;;0.90;0.90;;;22.30;66.70;;;;;;4997314;28;21362;-76
2022/11/04 05:30:06;;;;;;;1.20;1.10;;;22.30;66.70;;;;;;5006709;28;20467;-76
2022/11/04 05:32:34;;;;;;;1.40;1.30;;;22.40;66.60;;;;;;4998129;28;20452;-76
2022/11/04 05:35:02;;;;;;;1.20;1.20;;;22.40;66.70;;;;;;5021066;28;20460;-75
2022/11/04 05:37:32;;;;;;;1.27;1.17;;;22.40;66.60;;;;;;5007138;28;20810;-76
2022/11/04 05:40:00;;;;;;;1.50;1.40;;;22.40;66.70;;;;;;4993130;28;20519;-75
2022/11/04 05:42:29;;;;;;;1.50;1.40;;;22.40;66.70;;;;;;5019541;28;20463;-75
2022/11/04 05:44:57;;;;;;;1.27;1.17;;;22.40;66.60;;;;;;5015738;28;20453;-77
2022/11/04 05:47:25;;;;;;;1.80;1.70;;;22.40;66.70;;;;;;4992238;28;21314;-75
2022/11/04 05:49:56;;;;;;;0.90;0.90;;;22.40;66.70;;;;;;4990952;28;20468;-75
2022/11/04 05:52:24;;;;;;;1.37;1.27;;;22.40;66.70;;;;;;5014859;28;20492;-75
2022/11/04 05:54:54;;;;;;;1.07;1.00;;;22.40;66.70;;;;;;5014776;28;20448;-74
2022/11/04 05:57:22;;;;;;;1.20;1.10;;;22.40;66.70;;;;;;5023138;28;20448;-75
2022/11/04 05:59:50;;;;;;;1.47;1.03;;;22.40;66.70;;;;;;5012320;28;20814;-74
2022/11/04 06:02:18;;;;;;;1.43;1.07;;;22.40;66.70;;;;;;5002275;28;20467;-74
2022/11/04 06:04:46;;;;;;;1.27;1.10;;;22.30;66.80;;;;;;5011542;28;20496;-75
2022/11/04 06:07:14;;;;;;;0.93;0.87;;;22.40;66.80;;;;;;5000893;28;20929;-75
2022/11/04 06:09:44;;;;;;;1.47;1.37;;;22.40;66.80;;;;;;5019636;28;20807;-74
2022/11/04 06:12:17;;;;;;;1.27;1.13;;;22.40;66.80;;;;;;5004647;28;20749;-74
2022/11/04 06:14:45;;;;;;;1.27;1.17;;;22.30;66.80;;;;;;4992105;28;20460;-75
2022/11/04 06:17:15;;;;;;;1.30;1.20;;;22.40;66.80;;;;;;5018053;28;20455;-74
2022/11/04 06:19:44;;;;;;;1.07;0.97;;;22.30;66.90;;;;;;5014263;28;20454;-74
2022/11/04 06:22:13;;;;;;;1.20;1.10;;;22.30;66.90;;;;;;5004236;28;20455;-75
2022/11/04 06:24:42;;;;;;;3.80;1.10;;;22.30;66.80;;;;;;5031419;28;20465;-75
2022/11/04 06:27:10;;;;;;;1.90;1.00;;;22.40;66.80;;;;;;5031644;28;20494;-75
2022/11/04 06:29:40;;;;;;;1.13;1.03;;;22.30;66.90;;;;;;5023257;28;20951;-75
2022/11/04 06:32:09;;;;;;;1.43;1.30;;;22.30;66.90;;;;;;4998972;28;20465;-75
2022/11/04 06:34:37;;;;;;;1.47;0.97;;;22.30;66.90;;;;;;5004828;28;20460;-76
2022/11/04 06:37:05;;;;;;;0.97;0.97;;;22.30;66.90;;;;;;5012223;28;20457;-75
2022/11/04 06:39:34;;;;;;;1.90;1.30;;;22.30;66.90;;;;;;5002793;28;20478;-76
2022/11/04 06:42:02;;;;;;;1.80;1.30;;;22.30;66.90;;;;;;4996766;28;20473;-74
2022/11/04 06:44:32;;;;;;;1.40;1.30;;;22.30;67.10;;;;;;5001539;28;20932;-74
2022/11/04 06:47:02;;;;;;;1.20;1.10;;;22.40;67.20;;;;;;5002486;28;20509;-74
2022/11/04 06:49:30;;;;;;;1.20;1.10;;;22.30;67.40;;;;;;5004334;28;20996;-74
2022/11/04 06:51:59;;;;;;;0.80;0.80;;;22.40;67.50;;;;;;5005003;28;20560;-75
2022/11/04 06:54:28;;;;;;;1.33;1.07;;;22.40;67.50;;;;;;5001096;28;20453;-75
2022/11/04 06:56:56;;;;;;;1.80;1.23;;;22.40;67.60;;;;;;5004038;28;20464;-74
2022/11/04 06:59:24;;;;;;;1.60;1.37;;;22.40;67.60;;;;;;5002418;28;20983;-75
2022/11/04 07:01:52;;;;;;;13.47;5.37;;;22.30;68.20;;;;;;5015333;28;20464;-74
2022/11/04 07:04:21;;;;;;;8.53;4.27;;;22.30;68.50;;;;;;5009692;28;20485;-74
2022/11/04 07:06:50;;;;;;;6.00;2.90;;;22.40;68.90;;;;;;5012583;28;20468;-74
2022/11/04 07:09:18;;;;;;;8.23;3.57;;;22.40;69.00;;;;;;5017158;28;20459;-75
2022/11/04 07:11:46;;;;;;;10.50;3.47;;;22.40;69.10;;;;;;5010718;28;20461;-75
2022/11/04 07:14:14;;;;;;;6.23;2.40;;;22.40;69.20;;;;;;5006664;28;20465;-74
2022/11/04 07:16:43;;;;;;;5.40;2.40;;;22.40;69.30;;;;;;5009359;28;20560;-74
2022/11/04 07:19:11;;;;;;;8.37;2.87;;;22.40;69.30;;;;;;5002975;28;20941;-74
2022/11/04 07:21:40;;;;;;;10.13;3.20;;;22.40;69.40;;;;;;5002506;28;20465;-74
2022/11/04 07:24:09;;;;;;;6.70;2.90;;;22.40;69.40;;;;;;5003680;28;20457;-75
2022/11/04 07:26:37;;;;;;;2.97;2.23;;;22.40;69.40;;;;;;5007282;28;20468;-75
2022/11/04 07:29:05;;;;;;;3.37;2.00;;;22.40;69.40;;;;;;5003202;28;20464;-74
2022/11/04 07:31:34;;;;;;;3.37;1.80;;;22.40;69.40;;;;;;5005618;28;20457;-74
2022/11/04 07:34:02;;;;;;;5.93;2.40;;;22.30;69.40;;;;;;5009319;28;20463;-75
2022/11/04 07:36:30;;;;;;;5.40;2.80;;;22.40;69.30;;;;;;5005482;28;20460;-75
2022/11/04 07:38:59;;;;;;;4.00;2.13;;;22.40;69.30;;;;;;5007531;28;20454;-76
2022/11/04 07:41:28;;;;;;;6.00;2.10;;;22.30;69.40;;;;;;5007718;28;21119;-74
2022/11/04 07:43:57;;;;;;;2.20;2.00;;;22.30;69.40;;;;;;5005619;28;20488;-75
2022/11/04 07:46:25;;;;;;;5.20;1.90;;;22.30;69.30;;;;;;5000637;28;20477;-75
2022/11/04 07:48:57;;;;;;;3.80;1.93;;;22.40;69.30;;;;;;5003973;28;20522;-75
2022/11/04 07:51:26;;;;;;;2.20;2.00;;;22.30;69.20;;;;;;5002704;28;20451;-75
2022/11/04 07:53:55;;;;;;;4.87;1.93;;;22.30;69.10;;;;;;5004260;28;20488;-74
2022/11/04 07:56:25;;;;;;;2.80;1.70;;;22.30;69.00;;;;;;5002113;28;20466;-73
2022/11/04 07:58:53;;;;;;;2.40;1.90;;;22.30;69.00;;;;;;5003371;28;20442;-74
2022/11/04 08:01:23;;;;;;;2.30;1.53;;;22.30;68.90;;;;;;5005918;28;20468;-74
2022/11/04 08:03:52;;;;;;;4.50;1.43;;;22.30;68.90;;;;;;5009468;28;20461;-74
2022/11/04 08:06:21;;;;;;;1.40;1.30;;;22.30;68.80;;;;;;5010710;28;20473;-74
2022/11/04 08:08:52;;;;;;;4.87;1.90;;;22.30;68.80;;;;;;5007005;28;20460;-75
2022/11/04 08:11:27;;;;;;;2.83;1.67;;;22.30;68.70;;;;;;5001577;28;20544;-76
2022/11/04 08:13:55;;;;;;;3.00;1.80;;;22.30;68.70;;;;;;5012623;28;20488;-74
2022/11/04 08:16:25;;;;;;;4.57;2.27;;;22.30;68.70;;;;;;5007989;28;20456;-74
2022/11/04 08:19:01;;;;;;;2.87;1.70;;;22.30;68.70;;;;;;5025956;28;20527;-73
2022/11/04 08:21:30;;;;;;;2.07;1.80;;;22.30;68.70;;;;;;5021037;28;20936;-72
2022/11/04 08:23:58;;;;;;;3.47;1.70;;;22.30;68.70;;;;;;5026767;28;20460;-75
2022/11/04 08:26:27;;;;;;;4.30;1.90;;;22.30;68.90;;;;;;5024709;28;20872;-75
2022/11/04 08:28:56;;;;;;;8.73;2.10;;;22.30;69.20;;;;;;5012950;28;20531;-75
2022/11/04 08:31:26;;;;;;;2.47;1.60;;;22.40;69.90;;;;;;5007387;28;20440;-76
2022/11/04 08:33:54;;;;;;;4.50;2.50;;;22.40;70.50;;;;;;5019135;28;20462;-74
2022/11/04 08:36:24;;;;;;;3.97;2.47;;;22.40;70.70;;;;;;5023959;28;20471;-75
2022/11/04 08:38:53;;;;;;;3.53;2.10;;;22.40;70.80;;;;;;5013358;28;20465;-73
2022/11/04 08:41:24;;;;;;;6.43;1.80;;;22.40;70.70;;;;;;5029144;28;20461;-75
2022/11/04 08:43:55;;;;;;;4.43;2.83;;;22.40;70.70;;;;;;5009343;28;20465;-76
2022/11/04 08:46:23;;;;;;;4.33;1.80;;;22.40;70.60;;;;;;5022486;28;20447;-74
2022/11/04 08:48:51;;;;;;;3.10;2.00;;;22.40;70.50;;;;;;5018086;28;20461;-76
2022/11/04 08:51:22;;;;;;;3.23;1.77;;;22.40;70.50;;;;;;5018780;28;20452;-74
2022/11/04 08:53:50;;;;;;;3.00;1.90;;;22.40;70.50;;;;;;5013737;28;20483;-72
2022/11/04 08:56:20;;;;;;;3.23;1.93;;;22.40;70.60;;;;;;5010187;28;20464;-73
2022/11/04 08:58:49;;;;;;;2.23;2.00;;;22.40;70.50;;;;;;5008394;28;20808;-74
2022/11/04 09:01:20;;;;;;;2.90;1.70;;;22.50;70.60;;;;;;4997240;28;20474;-74
2022/11/04 09:03:49;;;;;;;2.60;1.47;;;22.50;70.50;;;;;;5009642;28;20454;-74
2022/11/04 09:06:21;;;;;;;2.97;1.73;;;22.50;70.50;;;;;;5003894;28;20559;-75
2022/11/04 09:08:49;;;;;;;3.20;1.83;;;22.50;70.40;;;;;;4999817;28;20907;-73
2022/11/04 09:11:18;;;;;;;2.87;1.70;;;22.50;70.40;;;;;;5003995;28;20468;-74
2022/11/04 09:13:46;;;;;;;2.43;1.67;;;22.50;70.40;;;;;;5016002;28;20460;-74
2022/11/04 09:16:15;;;;;;;1.53;1.27;;;22.60;70.40;;;;;;5004572;28;20447;-74
2022/11/04 09:18:45;;;;;;;2.33;1.60;;;22.60;70.40;;;;;;5003685;28;21035;-74
2022/11/04 09:21:13;;;;;;;2.70;2.07;;;22.60;70.40;;;;;;5005478;28;20455;-75
2022/11/04 09:23:41;;;;;;;2.73;1.60;;;22.60;70.40;;;;;;5008343;28;20461;-74
2022/11/04 09:26:13;;;;;;;2.03;1.73;;;22.60;70.30;;;;;;5008028;28;21021;-75
2022/11/04 09:28:41;;;;;;;3.33;1.90;;;22.60;70.30;;;;;;5007465;28;20482;-74
2022/11/04 09:31:12;;;;;;;3.23;1.70;;;22.70;70.30;;;;;;5013847;28;20451;-74
2022/11/04 09:33:40;;;;;;;4.60;2.50;;;22.70;70.20;;;;;;5005893;28;21072;-74
2022/11/04 09:36:10;;;;;;;2.20;1.53;;;22.70;70.20;;;;;;5007005;28;20452;-74
2022/11/04 09:38:40;;;;;;;1.50;1.40;;;22.70;70.20;;;;;;5018474;28;20454;-75
2022/11/04 09:41:21;;;;;;;2.17;1.90;;;22.70;70.20;;;;;;4999096;28;20572;-77
2022/11/04 09:43:55;;;;;;;3.50;2.03;;;22.70;70.20;;;;;;5013821;28;20447;-77
2022/11/04 09:46:24;;;;;;;2.13;1.63;;;22.70;70.20;;;;;;5008755;28;20558;-76
2022/11/04 09:48:55;;;;;;;2.07;1.50;;;22.80;70.10;;;;;;5002735;28;20987;-75
2022/11/04 09:51:26;;;;;;;2.67;1.70;;;22.80;70.10;;;;;;5006724;28;20445;-78
2022/11/04 09:54:21;;;;;;;4.40;1.73;;;22.80;70.10;;;;;;5006323;28;20987;-80
2022/11/04 09:56:52;;;;;;;2.67;1.37;;;22.80;70.10;;;;;;5005592;28;20461;-75
2022/11/04 09:59:25;;;;;;;3.10;1.80;;;22.80;70.00;;;;;;5003708;28;20486;-75
2022/11/04 10:02:15;;;;;;;2.50;1.33;;;22.80;70.00;;;;;;4996753;28;20478;-74
2022/11/04 10:04:57;;;;;;;2.80;1.30;;;22.80;70.00;;;;;;4998456;28;20857;-76
2022/11/04 10:07:45;;;;;;;1.80;1.60;;;22.90;70.00;;;;;;5010316;28;20484;-83
2022/11/04 10:10:22;;;;;;;3.03;1.50;;;22.90;70.00;;;;;;5007919;28;20462;-84
2022/11/04 10:13:05;;;;;;;3.57;1.47;;;22.90;69.70;;;;;;5008857;28;20461;-74
2022/11/04 10:15:57;;;;;;;5.43;1.40;;;22.90;69.50;;;;;;5004272;28;21787;-78
2022/11/04 10:18:51;;;;;;;2.20;1.30;;;22.90;69.60;;;;;;5010761;28;20531;-79
2022/11/04 10:21:29;;;;;;;2.20;1.50;;;22.90;69.80;;;;;;5001283;28;20446;-78
2022/11/04 10:24:08;;;;;;;6.80;1.40;;;22.90;69.90;;;;;;4999572;28;20467;-80
2022/11/04 10:26:44;;;;;;;5.63;1.93;;;23.00;69.90;;;;;;4996628;28;20465;-80
2022/11/04 10:29:16;;;;;;;7.23;1.90;;;23.00;69.90;;;;;;5003914;28;20488;-79
2022/11/04 10:31:47;;;;;;;3.37;1.33;;;23.00;69.90;;;;;;5000336;28;20452;-79
2022/11/04 10:34:31;;;;;;;3.33;1.40;;;23.00;69.90;;;;;;5003467;28;20911;-80
2022/11/04 10:36:59;;;;;;;5.37;1.50;;;23.00;69.90;;;;;;5004714;28;20449;-79
2022/11/04 10:39:30;;;;;;;2.40;1.47;;;23.00;69.90;;;;;;5015490;28;20480;-79
2022/11/04 10:41:59;;;;;;;4.13;3.10;;;23.00;69.90;;;;;;5009262;28;20473;-80
2022/11/04 10:44:30;;;;;;;2.40;2.00;;;23.00;69.90;;;;;;5014103;28;20450;-79
2022/11/04 10:47:08;;;;;;;2.70;1.43;;;23.00;69.90;;;;;;5002879;28;20458;-82
2022/11/04 10:49:49;;;;;;;2.37;1.20;;;23.00;69.90;;;;;;5005006;28;20477;-81
2022/11/04 10:52:37;;;;;;;2.13;1.10;;;23.10;69.80;;;;;;5006900;28;20987;-81
2022/11/04 10:55:15;;;;;;;2.87;1.50;;;23.10;69.70;;;;;;5007211;28;20478;-78
2022/11/04 10:57:44;;;;;;;4.13;1.63;;;23.10;69.70;;;;;;5004323;28;20542;-77
2022/11/04 11:00:33;;;;;;;1.80;1.23;;;23.10;69.70;;;;;;5007270;28;20575;-81
2022/11/04 11:03:01;;;;;;;3.03;1.40;;;23.10;69.70;;;;;;5007193;28;20453;-80
2022/11/04 11:05:30;;;;;;;2.13;1.30;;;23.10;69.70;;;;;;5007804;28;20460;-82
2022/11/04 11:07:58;;;;;;;2.10;1.30;;;23.20;69.60;;;;;;5017808;28;21053;-79
2022/11/04 11:10:31;;;;;;;2.10;1.80;;;23.20;69.60;;;;;;5018197;28;20459;-79
2022/11/04 11:13:02;;;;;;;2.43;2.00;;;23.20;69.60;;;;;;5011176;28;20477;-83
2022/11/04 11:15:33;;;;;;;4.70;1.20;;;23.20;69.60;;;;;;5005812;28;20530;-84
2022/11/04 11:18:14;;;;;;;2.13;1.43;;;23.20;69.50;;;;;;5008704;28;20488;-81
2022/11/04 11:20:47;;;;;;;2.20;1.47;;;23.20;69.50;;;;;;5004105;28;20551;-80
2022/11/04 11:23:39;;;;;;;3.17;1.40;;;23.30;69.50;;;;;;5010189;28;20489;-79
2022/11/04 11:26:11;;;;;;;2.40;1.43;;;23.30;69.60;;;;;;5006832;28;20457;-78
2022/11/04 11:28:41;;;;;;;2.43;1.17;;;23.30;69.60;;;;;;5002398;28;21362;-78
2022/11/04 11:31:15;;;;;;;3.57;1.57;;;23.30;69.50;;;;;;5006989;28;20461;-78
2022/11/04 11:33:51;;;;;;;2.43;1.00;;;23.30;69.50;;;;;;5011952;28;20454;-79
2022/11/04 11:36:22;;;;;;;1.63;1.30;;;23.30;69.50;;;;;;5002572;28;20450;-78
2022/11/04 11:39:02;;;;;;;1.83;1.00;;;23.30;69.40;;;;;;5008071;28;21221;-79
2022/11/04 11:41:34;;;;;;;2.40;1.57;;;23.30;69.40;;;;;;5007936;28;20886;-77
2022/11/04 11:44:20;;;;;;;1.43;1.27;;;23.40;69.40;;;;;;5021780;28;20507;-77
2022/11/04 11:46:53;;;;;;;2.33;1.20;;;23.40;69.20;;;;;;5015021;28;20452;-84
2022/11/04 11:49:27;;;;;;;8.43;1.83;;;23.40;68.90;;;;;;5023935;28;20479;-84
2022/11/04 11:51:56;;;;;;;7.13;2.70;;;23.40;69.10;;;;;;5003878;28;20462;-81
2022/11/04 11:54:32;;;;;;;2.93;1.93;;;23.40;69.00;;;;;;5007114;28;20572;-82
2022/11/04 11:57:09;;;;;;;2.70;1.87;;;23.40;69.00;;;;;;5005679;28;20934;-80
2022/11/04 11:59:48;;;;;;;2.73;1.33;;;23.40;69.00;;;;;;5005897;28;20459;-82
2022/11/04 12:02:47;;;;;;;1.50;1.20;;;23.50;69.00;;;;;;5003378;28;20485;-81
2022/11/04 12:05:17;;;;;;;2.40;1.00;;;23.50;69.00;;;;;;5003592;28;20945;-81
2022/11/04 12:08:26;;;;;;;1.83;1.40;;;23.50;68.90;;;;;;5003408;28;20985;-82
2022/11/04 12:11:19;;;;;;;4.60;1.40;;;23.50;68.90;;;;;;5004487;28;20468;-82
2022/11/04 12:13:53;;;;;;;2.10;1.30;;;23.50;68.80;;;;;;5003558;28;20457;-78
2022/11/04 12:16:31;;;;;;;5.30;1.37;;;23.50;68.90;;;;;;4999631;28;20540;-79
2022/11/04 12:19:19;;;;;;;1.87;1.40;;;23.50;68.90;;;;;;5008495;28;20453;-80
2022/11/04 12:21:54;;;;;;;3.33;1.17;;;23.50;69.00;;;;;;4999006;28;21023;-80
2022/11/04 12:24:30;;;;;;;2.10;1.37;;;23.50;68.80;;;;;;5004390;28;20460;-80
2022/11/04 12:27:11;;;;;;;4.13;1.70;;;23.50;68.50;;;;;;4998650;28;20455;-79
2022/11/04 12:29:55;;;;;;;3.70;1.73;;;23.50;68.30;;;;;;5001962;28;20971;-81
2022/11/04 12:32:36;;;;;;;4.43;2.20;;;23.50;68.00;;;;;;5000071;28;20573;-82
2022/11/04 12:35:16;;;;;;;4.60;2.87;;;23.50;68.00;;;;;;5001496;28;20490;-80
2022/11/04 12:37:54;;;;;;;8.87;3.80;;;23.50;68.10;;;;;;5004001;28;20893;-80
2022/11/04 12:40:27;;;;;;;11.03;4.10;;;23.50;68.00;;;;;;5008937;28;20996;-79
2022/11/04 12:43:15;;;;;;;9.40;4.97;;;23.50;68.00;;;;;;5011668;28;20461;-79
2022/11/04 12:45:56;;;;;;;15.33;8.50;;;23.50;67.90;;;;;;5007088;28;20468;-81
2022/11/04 12:48:37;;;;;;;20.00;10.53;;;23.50;67.80;;;;;;5003277;28;20452;-79
2022/11/04 12:51:15;;;;;;;22.30;13.37;;;23.50;67.90;;;;;;5005969;28;20468;-79
2022/11/04 12:54:04;;;;;;;22.63;14.97;;;23.50;67.90;;;;;;5009156;28;21125;-79
2022/11/04 12:56:37;;;;;;;28.33;16.67;;;23.50;68.00;;;;;;4998366;28;20791;-80
2022/11/04 12:59:25;;;;;;;36.97;20.80;;;23.40;68.00;;;;;;5008084;28;20471;-79
2022/11/04 13:01:59;;;;;;;34.53;22.10;;;23.40;68.00;;;;;;5000035;28;20462;-79
2022/11/04 13:04:34;;;;;;;28.93;20.57;;;23.40;68.00;;;;;;5004570;28;20504;-79
2022/11/04 13:07:10;;;;;;;26.67;19.20;;;23.40;68.40;;;;;;5015766;28;20445;-79
2022/11/04 13:09:42;;;;;;;29.00;21.20;;;23.40;68.70;;;;;;4998486;28;20496;-77
2022/11/04 13:12:16;;;;;;;29.73;19.70;;;23.40;68.80;;;;;;5010162;28;20462;-80
2022/11/04 13:14:48;;;;;;;27.53;18.50;;;23.40;69.00;;;;;;5012849;28;20789;-81
2022/11/04 13:17:22;;;;;;;28.23;18.27;;;23.40;69.10;;;;;;5014517;28;20446;-78
2022/11/04 13:19:52;;;;;;;27.33;18.77;;;23.40;69.00;;;;;;5016142;28;20449;-79
2022/11/04 13:22:24;;;;;;;23.80;18.37;;;23.50;69.10;;;;;;5018266;28;20446;-80
2022/11/04 13:24:58;;;;;;;25.73;17.50;;;23.50;69.10;;;;;;5011956;28;20522;-78
2022/11/04 13:27:32;;;;;;;25.20;17.30;;;23.50;69.20;;;;;;5003969;28;20461;-77
2022/11/04 13:30:06;;;;;;;26.40;15.57;;;23.50;69.20;;;;;;5011415;28;20480;-77
2022/11/04 13:32:48;;;;;;;21.90;16.10;;;23.50;69.30;;;;;;5010358;28;20471;-79
2022/11/04 13:35:26;;;;;;;23.13;14.70;;;23.50;69.30;;;;;;4996505;28;20558;-79
2022/11/04 13:37:58;;;;;;;21.50;15.10;;;23.50;69.30;;;;;;5003970;28;20470;-77
2022/11/04 13:40:31;;;;;;;19.43;13.97;;;23.50;69.40;;;;;;5001414;28;20926;-77
2022/11/04 13:43:38;;;;;;;18.63;15.00;;;23.50;69.40;;;;;;5002654;28;20461;-77
2022/11/04 13:46:19;;;;;;;19.00;13.37;;;23.50;69.50;;;;;;5012870;28;20454;-76